KCRP/CRP METAR and TAF weather

Enter ICAO airport designator
Station Type Date Time Source
KCRP METAR 2018/12/11 00:51 UTC NOAA

KCRP 110051Z 16003KT 10SM FEW180 BKN250 11/07 A3040 RMK AO2 SLP293 T01060072


Station Type Date Time Source
KCRP Decoded METAR 2018/12/11 00:51 UTC NOAA

CORPUS CHRISTI INTERNATIONAL , TX, United States (KCRP) 27-46N 97-31W 16M
Dec 10, 2018 - 07:51 PM EST / 2018.12.11 0051 UTC
Wind: from the SSE (160 degrees) at 3 MPH (3 KT):0
Visibility: 10 mile(s):0
Sky conditions: mostly cloudy
Temperature: 51.1 F (10.6 C)
Dew Point: 45.0 F (7.2 C)
Relative Humidity: 79%
Pressure (altimeter): 30.4 in. Hg (1029 hPa)
ob: KCRP 110051Z 16003KT 10SM FEW180 BKN250 11/07 A3040 RMK AO2 SLP293 T01060072
cycle: 1

Station Type Date Time Source
KCRP TAF 2018/12/10 18:33 UTC NOAA

TAF KCRP 101730Z 1018/1118 VRB05KT P6SM SKC
FM111700 11008KT P6SM SCT250


Example: see airport list